createdAt,value
2022-12-09T00:00:04.251Z,1002.16
2022-12-09T00:01:04.100Z,1002.17
2022-12-09T00:02:04.141Z,1002.16
2022-12-09T00:03:04.287Z,1002.21
2022-12-09T00:04:04.138Z,1002.22
2022-12-09T00:05:04.168Z,1002.27
2022-12-09T00:06:04.095Z,1002.25
2022-12-09T00:07:04.058Z,1002.28
2022-12-09T00:08:04.069Z,1002.28
2022-12-09T00:09:04.144Z,1002.31
2022-12-09T00:10:04.236Z,1002.29
2022-12-09T00:11:04.027Z,1002.29
2022-12-09T00:12:04.029Z,1002.31
2022-12-09T00:13:04.039Z,1002.29
2022-12-09T00:14:04.174Z,1002.33
2022-12-09T00:15:04.055Z,1002.28
2022-12-09T00:16:04.143Z,1002.28
2022-12-09T00:17:04.166Z,1002.30
2022-12-09T00:18:04.320Z,1002.28
2022-12-09T00:19:04.075Z,1002.30
2022-12-09T00:20:04.341Z,1002.33
2022-12-09T00:21:04.093Z,1002.29
2022-12-09T00:22:04.105Z,1002.35
2022-12-09T00:23:04.110Z,1002.32
2022-12-09T00:24:04.415Z,1002.31
2022-12-09T00:25:04.356Z,1002.32
2022-12-09T00:26:04.198Z,1002.32
2022-12-09T00:27:04.281Z,1002.34
2022-12-09T00:28:04.142Z,1002.29
2022-12-09T00:29:04.188Z,1002.32
2022-12-09T00:30:04.610Z,1002.28
2022-12-09T00:31:04.292Z,1002.30
2022-12-09T00:32:04.277Z,1002.30
2022-12-09T00:33:04.326Z,1002.32
2022-12-09T00:34:04.472Z,1002.29
2022-12-09T00:35:04.333Z,1002.30
2022-12-09T00:36:04.189Z,1002.32
2022-12-09T00:37:04.198Z,1002.31
2022-12-09T00:38:04.372Z,1002.34
2022-12-09T00:39:04.199Z,1002.36
2022-12-09T00:40:04.375Z,1002.36
2022-12-09T00:41:04.469Z,1002.35
2022-12-09T00:42:04.469Z,1002.39
2022-12-09T00:43:04.222Z,1002.41
2022-12-09T00:44:04.274Z,1002.42
2022-12-09T00:45:04.235Z,1002.42
2022-12-09T00:46:04.287Z,1002.44
2022-12-09T00:47:04.388Z,1002.44
2022-12-09T00:48:04.354Z,1002.44
2022-12-09T00:49:04.525Z,1002.46
2022-12-09T00:50:04.838Z,1002.45
2022-12-09T00:51:04.271Z,1002.48
2022-12-09T00:52:04.280Z,1002.48
2022-12-09T00:53:04.370Z,1002.50
2022-12-09T00:54:04.419Z,1002.54
2022-12-09T00:55:04.383Z,1002.54
2022-12-09T00:56:04.306Z,1002.52
2022-12-09T00:57:04.497Z,1002.53
2022-12-09T00:58:04.318Z,1002.53
2022-12-09T00:59:04.494Z,1002.57
2022-12-09T01:00:04.884Z,1002.55
2022-12-09T01:01:04.712Z,1002.61
2022-12-09T01:02:04.398Z,1002.57
2022-12-09T01:03:04.520Z,1002.56
2022-12-09T01:04:04.532Z,1002.54
2022-12-09T01:05:04.722Z,1002.59
2022-12-09T01:06:04.417Z,1002.56
2022-12-09T01:07:04.367Z,1002.61
2022-12-09T01:08:04.418Z,1002.64
2022-12-09T01:09:04.621Z,1002.61
2022-12-09T01:10:04.748Z,1002.61
2022-12-09T01:11:04.427Z,1002.60
2022-12-09T01:12:04.620Z,1002.67
2022-12-09T01:13:04.486Z,1002.62
2022-12-09T01:14:04.694Z,1002.59
2022-12-09T01:15:04.633Z,1002.59
2022-12-09T01:16:04.737Z,1002.64
2022-12-09T01:17:04.643Z,1002.62
2022-12-09T01:18:04.578Z,1002.56
2022-12-09T01:19:04.463Z,1002.58
2022-12-09T01:20:04.911Z,1002.59
2022-12-09T01:21:04.449Z,1002.54
2022-12-09T01:22:04.637Z,1002.60
2022-12-09T01:23:04.531Z,1002.56
2022-12-09T01:24:04.743Z,1002.57
2022-12-09T01:25:04.653Z,1002.58
2022-12-09T01:26:04.510Z,1002.55
2022-12-09T01:27:04.509Z,1002.56
2022-12-09T01:28:04.531Z,1002.54
2022-12-09T01:29:04.843Z,1002.56
2022-12-09T01:30:05.231Z,1002.58
2022-12-09T01:31:04.669Z,1002.52
2022-12-09T01:32:04.890Z,1002.55
2022-12-09T01:33:04.628Z,1002.51
2022-12-09T01:34:04.550Z,1002.50
2022-12-09T01:35:04.538Z,1002.52
2022-12-09T01:36:04.858Z,1002.51
2022-12-09T01:37:04.543Z,1002.53
2022-12-09T01:38:04.548Z,1002.53
2022-12-09T01:39:04.865Z,1002.54
2022-12-09T01:40:05.090Z,1002.50
2022-12-09T01:41:04.769Z,1002.52
2022-12-09T01:42:04.729Z,1002.54
2022-12-09T01:43:04.677Z,1002.54
2022-12-09T01:44:04.583Z,1002.53
2022-12-09T01:45:04.592Z,1002.56
2022-12-09T01:46:04.933Z,1002.51
2022-12-09T01:47:04.648Z,1002.51
2022-12-09T01:48:04.766Z,1002.52
2022-12-09T01:49:04.611Z,1002.48
2022-12-09T01:50:04.895Z,1002.55
2022-12-09T01:51:04.653Z,1002.51
2022-12-09T01:52:04.693Z,1002.53
2022-12-09T01:53:04.633Z,1002.53
2022-12-09T01:54:05.005Z,1002.57
2022-12-09T01:55:04.646Z,1002.53
2022-12-09T01:56:04.888Z,1002.54
2022-12-09T01:57:04.798Z,1002.51
2022-12-09T01:58:04.959Z,1002.55
2022-12-09T01:59:04.672Z,1002.56
2022-12-09T02:00:05.048Z,1002.60
2022-12-09T02:01:04.730Z,1002.61
2022-12-09T02:02:05.082Z,1002.61
2022-12-09T02:03:04.865Z,1002.62
2022-12-09T02:04:04.918Z,1002.60
2022-12-09T02:05:05.167Z,1002.61
2022-12-09T02:06:05.051Z,1002.60
2022-12-09T02:07:04.715Z,1002.62
2022-12-09T02:08:04.920Z,1002.63
2022-12-09T02:09:05.059Z,1002.58
2022-12-09T02:10:05.154Z,1002.58
2022-12-09T02:11:04.971Z,1002.55
2022-12-09T02:12:04.744Z,1002.58
2022-12-09T02:13:05.117Z,1002.57
2022-12-09T02:14:04.753Z,1002.54
2022-12-09T02:15:04.758Z,1002.55
2022-12-09T02:16:05.144Z,1002.54
2022-12-09T02:17:04.973Z,1002.56
2022-12-09T02:18:04.778Z,1002.57
2022-12-09T02:19:04.783Z,1002.51
2022-12-09T02:20:05.570Z,1002.51
2022-12-09T02:21:05.122Z,1002.53
2022-12-09T02:22:04.807Z,1002.56
2022-12-09T02:23:05.042Z,1002.55
2022-12-09T02:24:04.837Z,1002.56
2022-12-09T02:25:05.196Z,1002.54
2022-12-09T02:26:05.236Z,1002.54
2022-12-09T02:27:05.003Z,1002.53
2022-12-09T02:28:04.837Z,1002.55
2022-12-09T02:29:05.029Z,1002.54
2022-12-09T02:30:05.216Z,1002.56
2022-12-09T02:31:05.207Z,1002.50
2022-12-09T02:32:05.321Z,1002.54
2022-12-09T02:33:05.079Z,1002.51
2022-12-09T02:34:04.929Z,1002.54
2022-12-09T02:35:04.917Z,1002.52
2022-12-09T02:36:05.047Z,1002.45
2022-12-09T02:37:04.941Z,1002.44
2022-12-09T02:38:04.969Z,1002.45
2022-12-09T02:39:04.985Z,1002.40
2022-12-09T02:40:05.389Z,1002.44
2022-12-09T02:41:04.915Z,1002.40
2022-12-09T02:42:04.951Z,1002.40
2022-12-09T02:43:05.275Z,1002.41
2022-12-09T02:44:04.941Z,1002.39
2022-12-09T02:45:05.092Z,1002.32
2022-12-09T02:46:04.948Z,1002.32
2022-12-09T02:47:05.024Z,1002.29
2022-12-09T02:48:05.332Z,1002.32
2022-12-09T02:49:05.009Z,1002.31
2022-12-09T02:50:05.783Z,1002.31
2022-12-09T02:51:04.982Z,1002.37
2022-12-09T02:52:04.993Z,1002.32
2022-12-09T02:53:05.236Z,1002.28
2022-12-09T02:54:05.349Z,1002.30
2022-12-09T02:55:05.013Z,1002.28
2022-12-09T02:56:05.010Z,1002.27
2022-12-09T02:57:05.096Z,1002.28
2022-12-09T02:58:05.322Z,1002.27
2022-12-09T02:59:05.038Z,1002.27
2022-12-09T03:00:05.400Z,1002.28
2022-12-09T03:01:05.206Z,1002.27
2022-12-09T03:02:05.485Z,1002.27
2022-12-09T03:03:05.462Z,1002.34
2022-12-09T03:04:05.191Z,1002.33
2022-12-09T03:05:05.074Z,1002.36
2022-12-09T03:06:05.369Z,1002.34
2022-12-09T03:07:05.351Z,1002.38
2022-12-09T03:08:05.434Z,1002.36
2022-12-09T03:09:05.437Z,1002.33
2022-12-09T03:10:05.437Z,1002.37
2022-12-09T03:11:05.144Z,1002.38
2022-12-09T03:12:05.132Z,1002.42
2022-12-09T03:13:05.124Z,1002.39
2022-12-09T03:14:05.131Z,1002.33
2022-12-09T03:15:05.175Z,1002.34
2022-12-09T03:16:05.274Z,1002.34
2022-12-09T03:17:05.467Z,1002.36
2022-12-09T03:18:05.269Z,1002.37
2022-12-09T03:19:05.317Z,1002.34
2022-12-09T03:20:05.759Z,1002.33
2022-12-09T03:21:05.444Z,1002.32
2022-12-09T03:22:05.333Z,1002.37
2022-12-09T03:23:05.185Z,1002.35
2022-12-09T03:24:05.212Z,1002.33
2022-12-09T03:25:05.547Z,1002.39
2022-12-09T03:26:05.264Z,1002.43
2022-12-09T03:27:05.588Z,1002.37
2022-12-09T03:28:05.342Z,1002.40
2022-12-09T03:29:05.351Z,1002.37
2022-12-09T03:30:05.924Z,1002.35
2022-12-09T03:31:05.543Z,1002.31
2022-12-09T03:32:05.344Z,1002.34
2022-12-09T03:33:05.370Z,1002.37
2022-12-09T03:34:05.289Z,1002.31
2022-12-09T03:35:05.414Z,1002.33
2022-12-09T03:36:05.641Z,1002.33
2022-12-09T03:37:05.331Z,1002.38
2022-12-09T03:38:05.432Z,1002.39
2022-12-09T03:39:05.318Z,1002.36
2022-12-09T03:40:09.840Z,1002.38
2022-12-09T03:41:05.357Z,1002.40
2022-12-09T03:42:05.346Z,1002.44
2022-12-09T03:43:05.314Z,1002.42
2022-12-09T03:44:05.367Z,1002.43
2022-12-09T03:45:05.525Z,1002.47
2022-12-09T03:46:05.573Z,1002.45
2022-12-09T03:47:05.454Z,1002.41
2022-12-09T03:48:05.677Z,1002.42
2022-12-09T03:49:05.376Z,1002.41
2022-12-09T03:50:05.711Z,1002.38
2022-12-09T03:51:05.669Z,1002.36
2022-12-09T03:52:05.383Z,1002.33
2022-12-09T03:53:05.382Z,1002.34
2022-12-09T03:54:05.445Z,1002.38
2022-12-09T03:55:05.716Z,1002.34
2022-12-09T03:56:05.670Z,1002.40
2022-12-09T03:57:05.806Z,1002.37
2022-12-09T03:58:05.408Z,1002.32
2022-12-09T03:59:05.476Z,1002.38
2022-12-09T04:00:05.891Z,1002.32
2022-12-09T04:01:05.824Z,1002.40
2022-12-09T04:02:05.674Z,1002.35
2022-12-09T04:03:05.694Z,1002.34
2022-12-09T04:04:06.021Z,1002.32
2022-12-09T04:05:05.800Z,1002.27
2022-12-09T04:06:05.511Z,1002.32
2022-12-09T04:07:05.889Z,1002.33
2022-12-09T04:08:05.648Z,1002.32
2022-12-09T04:09:05.972Z,1002.29
2022-12-09T04:10:05.936Z,1002.30
2022-12-09T04:11:05.601Z,1002.31
2022-12-09T04:12:05.563Z,1002.30
2022-12-09T04:13:05.746Z,1002.31
2022-12-09T04:14:07.186Z,1002.31
2022-12-09T04:15:05.924Z,1002.30
2022-12-09T04:16:05.562Z,1002.31
2022-12-09T04:17:05.657Z,1002.35
2022-12-09T04:18:05.673Z,1002.34
2022-12-09T04:19:05.651Z,1002.32
2022-12-09T04:20:06.091Z,1002.31
2022-12-09T04:21:05.560Z,1002.28
2022-12-09T04:22:05.659Z,1002.28
2022-12-09T04:23:05.997Z,1002.23
2022-12-09T04:24:05.672Z,1002.26
2022-12-09T04:25:05.843Z,1002.23
2022-12-09T04:26:05.968Z,1002.28
2022-12-09T04:27:05.725Z,1002.24
2022-12-09T04:28:05.663Z,1002.28
2022-12-09T04:29:05.650Z,1002.29
2022-12-09T04:30:06.047Z,1002.26
2022-12-09T04:31:06.006Z,1002.25
2022-12-09T04:32:06.065Z,1002.26
2022-12-09T04:33:05.802Z,1002.27
2022-12-09T04:34:09.595Z,1002.29
2022-12-09T04:35:05.712Z,1002.26
2022-12-09T04:36:05.678Z,1002.28
2022-12-09T04:37:05.778Z,1002.27
2022-12-09T04:38:05.759Z,1002.26
2022-12-09T04:39:06.082Z,1002.24
2022-12-09T04:40:06.162Z,1002.26
2022-12-09T04:41:05.738Z,1002.22
2022-12-09T04:42:05.726Z,1002.26
2022-12-09T04:43:05.698Z,1002.26
2022-12-09T04:44:05.917Z,1002.25
2022-12-09T04:45:05.739Z,1002.25
2022-12-09T04:46:05.914Z,1002.28
2022-12-09T04:47:05.926Z,1002.29
2022-12-09T04:48:06.073Z,1002.26
2022-12-09T04:49:05.735Z,1002.31
2022-12-09T04:50:06.391Z,1002.31
2022-12-09T04:51:05.877Z,1002.34
2022-12-09T04:52:06.095Z,1002.38
2022-12-09T04:53:05.835Z,1002.38
2022-12-09T04:54:05.784Z,1002.37
2022-12-09T04:55:06.135Z,1002.40
2022-12-09T04:56:06.189Z,1002.34
2022-12-09T04:57:05.907Z,1002.35
2022-12-09T04:58:05.851Z,1002.28
2022-12-09T04:59:06.300Z,1002.28
2022-12-09T05:00:06.160Z,1002.28
2022-12-09T05:01:06.037Z,1002.33
2022-12-09T05:02:05.933Z,1002.29
2022-12-09T05:03:05.960Z,1002.29
2022-12-09T05:04:06.348Z,1002.29
2022-12-09T05:05:06.117Z,1002.27
2022-12-09T05:06:06.382Z,1002.28
2022-12-09T05:07:06.243Z,1002.31
2022-12-09T05:08:06.055Z,1002.34
2022-12-09T05:09:05.950Z,1002.30
2022-12-09T05:10:06.372Z,1002.27
2022-12-09T05:11:06.266Z,1002.26
2022-12-09T05:12:05.920Z,1002.28
2022-12-09T05:13:06.056Z,1002.30
2022-12-09T05:14:06.106Z,1002.25
2022-12-09T05:15:06.381Z,1002.22
2022-12-09T05:16:10.610Z,1002.25
2022-12-09T05:17:05.999Z,1002.24
2022-12-09T05:18:06.013Z,1002.19
2022-12-09T05:19:06.313Z,1002.21
2022-12-09T05:20:06.882Z,1002.19
2022-12-09T05:21:05.982Z,1002.22
2022-12-09T05:22:06.416Z,1002.20
2022-12-09T05:23:09.325Z,1002.26
2022-12-09T05:24:06.294Z,1002.26
2022-12-09T05:25:06.252Z,1002.26
2022-12-09T05:26:06.418Z,1002.26
2022-12-09T05:27:06.107Z,1002.24
2022-12-09T05:28:06.347Z,1002.22
2022-12-09T05:29:06.426Z,1002.22
2022-12-09T05:30:06.597Z,1002.27
2022-12-09T05:31:06.422Z,1002.23
2022-12-09T05:32:06.385Z,1002.30
2022-12-09T05:33:06.208Z,1002.30
2022-12-09T05:34:06.329Z,1002.30
2022-12-09T05:35:06.383Z,1002.31
2022-12-09T05:36:06.149Z,1002.33
2022-12-09T05:37:06.076Z,1002.31
2022-12-09T05:38:06.199Z,1002.41
2022-12-09T05:39:06.191Z,1002.36
2022-12-09T05:40:06.443Z,1002.36
2022-12-09T05:41:06.119Z,1002.35
2022-12-09T05:42:06.091Z,1002.38
2022-12-09T05:43:06.188Z,1002.40
2022-12-09T05:44:06.454Z,1002.40
2022-12-09T05:45:06.509Z,1002.36
2022-12-09T05:46:06.627Z,1002.39
2022-12-09T05:47:06.244Z,1002.38
2022-12-09T05:48:06.281Z,1002.37
2022-12-09T05:49:06.551Z,1002.37
2022-12-09T05:50:08.178Z,1002.42
2022-12-09T05:51:06.552Z,1002.39
2022-12-09T05:52:06.280Z,1002.40
2022-12-09T05:53:06.246Z,1002.38
2022-12-09T05:54:06.439Z,1002.36
2022-12-09T05:55:06.328Z,1002.34
2022-12-09T05:56:06.619Z,1002.36
2022-12-09T05:57:06.615Z,1002.42
2022-12-09T05:58:06.370Z,1002.38
2022-12-09T05:59:06.233Z,1002.39
2022-12-09T06:00:06.785Z,1002.38
2022-12-09T06:01:06.347Z,1002.41
2022-12-09T06:02:10.016Z,1002.37
2022-12-09T06:03:06.439Z,1002.36
2022-12-09T06:04:06.609Z,1002.40
2022-12-09T06:05:06.779Z,1002.38
2022-12-09T06:06:06.596Z,1002.39
2022-12-09T06:07:06.573Z,1002.35
2022-12-09T06:08:07.430Z,1002.35
2022-12-09T06:09:06.576Z,1002.35
2022-12-09T06:10:06.912Z,1002.36
2022-12-09T06:11:06.532Z,1002.36
2022-12-09T06:12:06.637Z,1002.37
2022-12-09T06:13:06.671Z,1002.36
2022-12-09T06:14:06.600Z,1002.40
2022-12-09T06:15:09.654Z,1002.35
2022-12-09T06:16:06.839Z,1002.39
2022-12-09T06:17:06.815Z,1002.36
2022-12-09T06:18:06.499Z,1002.36
2022-12-09T06:19:06.716Z,1002.34
2022-12-09T06:20:07.153Z,1002.39
2022-12-09T06:21:06.420Z,1002.42
2022-12-09T06:22:06.640Z,1002.37
2022-12-09T06:23:06.630Z,1002.41
2022-12-09T06:24:06.363Z,1002.37
2022-12-09T06:25:06.379Z,1002.39
2022-12-09T06:26:06.460Z,1002.40
2022-12-09T06:27:06.451Z,1002.39
2022-12-09T06:28:06.851Z,1002.37
2022-12-09T06:29:06.527Z,1002.40
2022-12-09T06:30:06.532Z,1002.44
2022-12-09T06:31:06.567Z,1002.44
2022-12-09T06:32:06.521Z,1002.43
2022-12-09T06:33:22.909Z,1002.50
2022-12-09T06:34:06.824Z,1002.50
2022-12-09T06:35:07.063Z,1002.52
2022-12-09T06:36:06.571Z,1002.51
2022-12-09T06:37:06.476Z,1002.54
2022-12-09T06:38:06.500Z,1002.52
2022-12-09T06:39:10.644Z,1002.51
2022-12-09T06:40:06.650Z,1002.50
2022-12-09T06:41:06.568Z,1002.49
2022-12-09T06:42:06.813Z,1002.55
2022-12-09T06:43:06.841Z,1002.57
2022-12-09T06:44:06.812Z,1002.58
2022-12-09T06:45:07.045Z,1002.61
2022-12-09T06:46:06.603Z,1002.58
2022-12-09T06:47:06.840Z,1002.63
2022-12-09T06:48:06.990Z,1002.60
2022-12-09T06:49:06.677Z,1002.61
2022-12-09T06:50:07.937Z,1002.63
2022-12-09T06:51:06.877Z,1002.64
2022-12-09T06:52:06.898Z,1002.62
2022-12-09T06:53:06.697Z,1002.63
2022-12-09T06:54:06.995Z,1002.64
2022-12-09T06:55:07.196Z,1002.63
2022-12-09T06:56:11.421Z,1002.61
2022-12-09T06:57:06.781Z,1002.66
2022-12-09T06:58:06.591Z,1002.64
2022-12-09T06:59:06.659Z,1002.66
2022-12-09T07:00:06.697Z,1002.63
2022-12-09T07:01:07.083Z,1002.64
2022-12-09T07:02:06.804Z,1002.62
2022-12-09T07:03:06.822Z,1002.59
2022-12-09T07:04:07.230Z,1002.63
2022-12-09T07:05:07.083Z,1002.62
2022-12-09T07:06:07.001Z,1002.64
2022-12-09T07:07:06.724Z,1002.63
2022-12-09T07:08:06.903Z,1002.61
2022-12-09T07:09:07.145Z,1002.64
2022-12-09T07:10:07.060Z,1002.64
2022-12-09T07:11:06.779Z,1002.68
2022-12-09T07:12:06.767Z,1002.69
2022-12-09T07:13:06.733Z,1002.67
2022-12-09T07:14:06.783Z,1002.69
2022-12-09T07:15:07.402Z,1002.69
2022-12-09T07:16:07.062Z,1002.69
2022-12-09T07:17:06.967Z,1002.68
2022-12-09T07:18:06.908Z,1002.64
2022-12-09T07:19:07.006Z,1002.65
2022-12-09T07:20:07.488Z,1002.62
2022-12-09T07:21:06.827Z,1002.66
2022-12-09T07:22:06.875Z,1002.67
2022-12-09T07:23:07.039Z,1002.69
2022-12-09T07:24:07.098Z,1002.64
2022-12-09T07:25:07.411Z,1002.66
2022-12-09T07:26:06.879Z,1002.69
2022-12-09T07:27:10.787Z,1002.68
2022-12-09T07:28:06.844Z,1002.67
2022-12-09T07:29:07.226Z,1002.68
2022-12-09T07:30:07.032Z,1002.69
2022-12-09T07:31:07.135Z,1002.68
2022-12-09T07:32:07.048Z,1002.67
2022-12-09T07:33:07.084Z,1002.72
2022-12-09T07:34:07.080Z,1002.72
2022-12-09T07:35:07.510Z,1002.72
2022-12-09T07:36:07.171Z,1002.70
2022-12-09T07:37:07.143Z,1002.71
2022-12-09T07:38:06.944Z,1002.67
2022-12-09T07:39:06.971Z,1002.68
2022-12-09T07:40:07.310Z,1002.68
2022-12-09T07:41:06.971Z,1002.72
2022-12-09T07:42:07.139Z,1002.69
2022-12-09T07:43:06.938Z,1002.72
2022-12-09T07:44:06.963Z,1002.65
2022-12-09T07:45:07.638Z,1002.72
2022-12-09T07:46:07.161Z,1002.73
2022-12-09T07:47:07.099Z,1002.74
2022-12-09T07:48:07.128Z,1002.78
2022-12-09T07:49:07.342Z,1002.72
2022-12-09T07:50:07.579Z,1002.77
2022-12-09T07:51:07.383Z,1002.76
2022-12-09T07:52:07.074Z,1002.74
2022-12-09T07:53:06.957Z,1002.76
2022-12-09T07:54:06.968Z,1002.76
2022-12-09T07:55:07.649Z,1002.73
2022-12-09T07:56:07.319Z,1002.78
2022-12-09T07:57:07.373Z,1002.80
2022-12-09T07:58:07.197Z,1002.78
2022-12-09T07:59:07.156Z,1002.78
2022-12-09T08:00:07.000Z,1002.79
2022-12-09T08:01:07.115Z,1002.79
2022-12-09T08:02:07.101Z,1002.81
2022-12-09T08:03:07.397Z,1002.80
2022-12-09T08:04:07.221Z,1002.84
2022-12-09T08:05:07.656Z,1002.86
2022-12-09T08:06:07.532Z,1002.86
2022-12-09T08:07:07.373Z,1002.83
2022-12-09T08:08:07.521Z,1002.85
2022-12-09T08:09:07.412Z,1002.84
2022-12-09T08:10:07.608Z,1002.79
2022-12-09T08:11:07.529Z,1002.87
2022-12-09T08:12:07.631Z,1002.83
2022-12-09T08:13:07.360Z,1002.86
2022-12-09T08:14:11.438Z,1002.84
2022-12-09T08:15:07.813Z,1002.84
2022-12-09T08:16:07.344Z,1002.85
2022-12-09T08:17:07.304Z,1002.82
2022-12-09T08:18:07.225Z,1002.85
2022-12-09T08:19:07.280Z,1002.82
2022-12-09T08:20:07.540Z,1002.81
2022-12-09T08:21:07.529Z,1002.82
2022-12-09T08:22:07.529Z,1002.79
2022-12-09T08:23:07.580Z,1002.82
2022-12-09T08:24:07.569Z,1002.80
2022-12-09T08:25:08.062Z,1002.80
2022-12-09T08:26:07.516Z,1002.81
2022-12-09T08:27:07.578Z,1002.81
2022-12-09T08:28:07.301Z,1002.82
2022-12-09T08:29:07.375Z,1002.84
2022-12-09T08:30:07.483Z,1002.86
2022-12-09T08:31:07.490Z,1002.89
2022-12-09T08:32:07.594Z,1002.88
2022-12-09T08:33:07.334Z,1002.87
2022-12-09T08:34:07.435Z,1002.87
2022-12-09T08:35:07.379Z,1002.89
2022-12-09T08:36:07.687Z,1002.89
2022-12-09T08:37:07.411Z,1002.85
2022-12-09T08:38:07.348Z,1002.87
2022-12-09T08:39:07.771Z,1002.91
2022-12-09T08:40:07.831Z,1002.88
2022-12-09T08:41:07.414Z,1002.88
2022-12-09T08:42:07.430Z,1002.91
2022-12-09T08:43:07.652Z,1002.91
2022-12-09T08:44:07.454Z,1002.89
2022-12-09T08:45:07.387Z,1002.94
2022-12-09T08:46:07.875Z,1002.95
2022-12-09T08:47:07.497Z,1002.96
2022-12-09T08:48:07.760Z,1002.97
2022-12-09T08:49:07.593Z,1002.93
2022-12-09T08:50:07.706Z,1002.94
2022-12-09T08:51:07.378Z,1002.97
2022-12-09T08:52:07.388Z,1002.94
2022-12-09T08:53:07.421Z,1002.94
2022-12-09T08:54:07.711Z,1002.93
2022-12-09T08:55:07.796Z,1002.94
2022-12-09T08:56:07.602Z,1002.95
2022-12-09T08:57:07.715Z,1002.95
2022-12-09T08:58:07.827Z,1002.96
2022-12-09T08:59:07.601Z,1003.00
2022-12-09T09:00:08.143Z,1003.00
2022-12-09T09:01:07.542Z,1003.01
2022-12-09T09:02:07.694Z,1003.05
2022-12-09T09:03:07.713Z,1003.06
2022-12-09T09:04:08.032Z,1003.06
2022-12-09T09:05:07.789Z,1003.08
2022-12-09T09:06:10.521Z,1003.06
2022-12-09T09:07:08.075Z,1003.07
2022-12-09T09:08:07.615Z,1003.03
2022-12-09T09:09:07.852Z,1003.06
2022-12-09T09:10:08.537Z,1003.08
2022-12-09T09:11:07.677Z,1003.07
2022-12-09T09:12:07.603Z,1003.05
2022-12-09T09:13:07.635Z,1003.06
2022-12-09T09:14:07.700Z,1003.04
2022-12-09T09:15:07.802Z,1003.05
2022-12-09T09:16:09.460Z,1003.03
2022-12-09T09:17:07.687Z,1003.06
2022-12-09T09:18:07.770Z,1003.07
2022-12-09T09:19:07.872Z,1003.07
2022-12-09T09:20:08.025Z,1003.09
2022-12-09T09:21:07.676Z,1003.07
2022-12-09T09:22:08.053Z,1003.09
2022-12-09T09:23:07.645Z,1003.07
2022-12-09T09:24:07.908Z,1003.05
2022-12-09T09:25:08.233Z,1003.11
2022-12-09T09:26:07.674Z,1003.12
2022-12-09T09:27:07.757Z,1003.12
2022-12-09T09:28:08.103Z,1003.09
2022-12-09T09:29:07.866Z,1003.09
2022-12-09T09:30:08.093Z,1003.11
2022-12-09T09:31:08.325Z,1003.10
2022-12-09T09:32:08.134Z,1003.10
2022-12-09T09:33:07.871Z,1003.10
2022-12-09T09:34:08.266Z,1003.11
2022-12-09T09:35:07.951Z,1003.13
2022-12-09T09:36:10.416Z,1003.15
2022-12-09T09:37:08.173Z,1003.12
2022-12-09T09:38:08.154Z,1003.15
2022-12-09T09:39:07.860Z,1003.10
2022-12-09T09:40:07.971Z,1003.11
2022-12-09T09:41:08.257Z,1003.12
2022-12-09T09:42:08.945Z,1003.08
2022-12-09T09:43:08.273Z,1003.08
2022-12-09T09:44:07.825Z,1003.08
2022-12-09T09:45:08.123Z,1003.11
2022-12-09T09:46:07.864Z,1003.11
2022-12-09T09:47:07.900Z,1003.12
2022-12-09T09:48:08.097Z,1003.09
2022-12-09T09:49:08.440Z,1003.13
2022-12-09T09:50:08.271Z,1003.12
2022-12-09T09:51:07.936Z,1003.09
2022-12-09T09:52:07.930Z,1003.09
2022-12-09T09:53:07.881Z,1003.11
2022-12-09T09:54:09.308Z,1003.08
2022-12-09T09:55:08.288Z,1003.05
2022-12-09T09:56:08.326Z,1003.09
2022-12-09T09:57:07.934Z,1003.07
2022-12-09T09:58:07.959Z,1003.08
2022-12-09T09:59:08.117Z,1003.08
2022-12-09T10:00:10.146Z,1003.08
2022-12-09T10:01:08.496Z,1003.06
2022-12-09T10:02:08.209Z,1003.08
2022-12-09T10:03:08.141Z,1003.05
2022-12-09T10:04:08.545Z,1003.01
2022-12-09T10:05:08.138Z,1003.01
2022-12-09T10:06:08.586Z,1003.04
2022-12-09T10:07:08.690Z,1002.99
2022-12-09T10:08:08.461Z,1003.05
2022-12-09T10:09:08.480Z,1002.95
2022-12-09T10:10:08.827Z,1002.98
2022-12-09T10:11:08.104Z,1002.94
2022-12-09T10:12:08.526Z,1002.91
2022-12-09T10:13:14.287Z,1002.89
2022-12-09T10:14:08.235Z,1002.90
2022-12-09T10:15:08.158Z,1002.85
2022-12-09T10:16:08.286Z,1002.85
2022-12-09T10:17:08.539Z,1002.86
2022-12-09T10:18:08.126Z,1002.87
2022-12-09T10:19:09.526Z,1002.88
2022-12-09T10:20:08.777Z,1002.91
2022-12-09T10:21:08.284Z,1002.88
2022-12-09T10:22:08.269Z,1002.85
2022-12-09T10:23:08.707Z,1002.86
2022-12-09T10:24:08.609Z,1002.84
2022-12-09T10:25:08.312Z,1002.83
2022-12-09T10:26:08.660Z,1002.89
2022-12-09T10:27:08.315Z,1002.88
2022-12-09T10:28:08.175Z,1002.92
2022-12-09T10:29:08.300Z,1002.90
2022-12-09T10:30:08.787Z,1002.94
2022-12-09T10:31:08.654Z,1002.92
2022-12-09T10:32:08.328Z,1002.92
2022-12-09T10:33:08.270Z,1002.92
2022-12-09T10:34:08.343Z,1002.91
2022-12-09T10:35:08.758Z,1002.90
2022-12-09T10:36:08.459Z,1002.86
2022-12-09T10:37:08.418Z,1002.90
2022-12-09T10:38:08.351Z,1002.85
2022-12-09T10:39:08.564Z,1002.85
2022-12-09T10:40:08.989Z,1002.82
2022-12-09T10:41:08.645Z,1002.84
2022-12-09T10:42:08.349Z,1002.83
2022-12-09T10:43:08.768Z,1002.86
2022-12-09T10:44:08.448Z,1002.89
2022-12-09T10:45:08.575Z,1002.86
2022-12-09T10:46:17.903Z,1002.84
2022-12-09T10:47:08.797Z,1002.83
2022-12-09T10:48:08.596Z,1002.85
2022-12-09T10:49:08.404Z,1002.82
2022-12-09T10:50:08.711Z,1002.85
2022-12-09T10:51:08.759Z,1002.78
2022-12-09T10:52:08.537Z,1002.78
2022-12-09T10:53:08.413Z,1002.77
2022-12-09T10:54:08.396Z,1002.80
2022-12-09T10:55:08.383Z,1002.78
2022-12-09T10:56:08.568Z,1002.80
2022-12-09T10:57:08.928Z,1002.78
2022-12-09T10:58:08.413Z,1002.80
2022-12-09T10:59:08.962Z,1002.76
2022-12-09T11:00:08.957Z,1002.77
2022-12-09T11:01:08.798Z,1002.74
2022-12-09T11:02:08.898Z,1002.68
2022-12-09T11:03:08.532Z,1002.73
2022-12-09T11:04:08.935Z,1002.71
2022-12-09T11:05:08.920Z,1002.66
2022-12-09T11:06:08.692Z,1002.68
2022-12-09T11:07:08.729Z,1002.66
2022-12-09T11:08:08.946Z,1002.65
2022-12-09T11:09:09.100Z,1002.64
2022-12-09T11:10:09.264Z,1002.62
2022-12-09T11:11:08.728Z,1002.62
2022-12-09T11:12:08.711Z,1002.60
2022-12-09T11:13:08.929Z,1002.61
2022-12-09T11:14:08.837Z,1002.62
2022-12-09T11:15:08.967Z,1002.60
2022-12-09T11:16:09.075Z,1002.59
2022-12-09T11:17:08.789Z,1002.61
2022-12-09T11:18:08.842Z,1002.57
2022-12-09T11:19:09.063Z,1002.55
2022-12-09T11:20:09.643Z,1002.52
2022-12-09T11:21:08.861Z,1002.57
2022-12-09T11:22:08.667Z,1002.55
2022-12-09T11:23:09.131Z,1002.50
2022-12-09T11:24:08.798Z,1002.47
2022-12-09T11:25:08.745Z,1002.49
2022-12-09T11:26:09.076Z,1002.49
2022-12-09T11:27:08.977Z,1002.49
2022-12-09T11:28:08.723Z,1002.52
2022-12-09T11:29:08.804Z,1002.50
2022-12-09T11:30:13.091Z,1002.49
2022-12-09T11:31:36.627Z,1002.48
2022-12-09T11:32:08.797Z,1002.49
2022-12-09T11:33:08.777Z,1002.47
2022-12-09T11:34:09.057Z,1002.49
2022-12-09T11:35:08.958Z,1002.46
2022-12-09T11:37:08.748Z,1002.42
2022-12-09T11:38:08.759Z,1002.43
2022-12-09T11:39:08.772Z,1002.46
2022-12-09T11:40:09.027Z,1002.46
2022-12-09T11:41:08.784Z,1002.44
2022-12-09T11:42:16.068Z,1002.44
2022-12-09T11:43:08.804Z,1002.44
2022-12-09T11:44:08.811Z,1002.42
2022-12-09T11:45:08.816Z,1002.43
2022-12-09T11:46:08.829Z,1002.43
2022-12-09T11:47:08.873Z,1002.42
2022-12-09T11:48:32.022Z,1002.45
2022-12-09T11:49:08.853Z,1002.45
2022-12-09T11:50:09.270Z,1002.49
2022-12-09T11:51:08.868Z,1002.46
2022-12-09T11:52:08.876Z,1002.47
2022-12-09T11:53:08.882Z,1002.43
2022-12-09T11:54:08.895Z,1002.45
2022-12-09T11:55:08.902Z,1002.45
2022-12-09T11:56:08.909Z,1002.46
2022-12-09T11:57:08.923Z,1002.41
2022-12-09T11:58:08.927Z,1002.41
2022-12-09T11:59:08.935Z,1002.41
2022-12-09T12:00:09.168Z,1002.44
2022-12-09T12:01:08.951Z,1002.40
2022-12-09T12:02:08.996Z,1002.42
2022-12-09T12:03:09.013Z,1002.41
2022-12-09T12:04:08.977Z,1002.42
2022-12-09T12:05:08.988Z,1002.44
2022-12-09T12:06:08.997Z,1002.45